Algoma, Mississippi
Current Conditions -  °F | °C
As of 2:53 PM on Friday 24 Oct 2014 (Local Time) from KTUP Reporting Station
Clear Clear  
Wind Chill: 72°   Ceiling: Unl
Heat Index: 72°   Visibility: 10mi
Dew Point: 37°   Wind: 6mph
Humidity: 28%   Direction: 350°N
Pressure: 30.08"   Gusts: NA
Location:  34.18°N, 89.03°W
Report Text: KTUP 241953Z AUTO 35005KT 10SM CLR 22/03 A3008 RMK AO2 SLP183 T02220028 $
Loading
Personal Weather Stations






























Interactive Weather Map
Tropical Storm Tracking
New forecast layout! Learn more

10-Day Weather Forecast

Advertisements
Track Severe Weather on mobile